sensor_id;sensor_type;location;lat;lon;timestamp;pressure;altitude;pressure_sealevel;temperature;humidity
55687;BME280;41911;52.362;4.978;2022-12-13T00:01:27;101310.55;;;-2.49;46.92
55687;BME280;41911;52.362;4.978;2022-12-13T00:01:58;101309.81;;;-2.33;46.75
55687;BME280;41911;52.362;4.978;2022-12-13T00:02:29;101310.11;;;-2.29;46.71
55687;BME280;41911;52.362;4.978;2022-12-13T00:03:03;101311.32;;;-2.29;46.66
55687;BME280;41911;52.362;4.978;2022-12-13T00:03:33;101310.21;;;-2.26;46.64
55687;BME280;41911;52.362;4.978;2022-12-13T00:04:05;101311.31;;;-2.27;46.67
55687;BME280;41911;52.362;4.978;2022-12-13T00:04:37;101311.10;;;-2.29;46.73
55687;BME280;41911;52.362;4.978;2022-12-13T00:05:08;101311.52;;;-2.32;46.66
55687;BME280;41911;52.362;4.978;2022-12-13T00:05:43;101309.24;;;-2.35;46.72
55687;BME280;41911;52.362;4.978;2022-12-13T00:06:17;101309.63;;;-2.09;46.79
55687;BME280;41911;52.362;4.978;2022-12-13T00:06:48;101308.40;;;-1.74;46.96
55687;BME280;41911;52.362;4.978;2022-12-13T00:07:19;101309.16;;;-2.38;46.82
55687;BME280;41911;52.362;4.978;2022-12-13T00:07:50;101308.09;;;-2.40;46.97
55687;BME280;41911;52.362;4.978;2022-12-13T00:08:21;101306.39;;;-2.25;46.80
55687;BME280;41911;52.362;4.978;2022-12-13T00:08:53;101307.11;;;-1.75;46.84
55687;BME280;41911;52.362;4.978;2022-12-13T00:09:24;101304.47;;;-2.43;46.84
55687;BME280;41911;52.362;4.978;2022-12-13T00:09:55;101305.10;;;-2.11;46.89
55687;BME280;41911;52.362;4.978;2022-12-13T00:10:27;101305.62;;;-1.76;46.84
55687;BME280;41911;52.362;4.978;2022-12-13T00:10:58;101305.63;;;-1.87;46.91
55687;BME280;41911;52.362;4.978;2022-12-13T00:11:30;101305.01;;;-2.46;46.99
55687;BME280;41911;52.362;4.978;2022-12-13T00:12:01;101304.53;;;-2.26;47.07
55687;BME280;41911;52.362;4.978;2022-12-13T00:12:32;101305.95;;;-2.46;46.91
55687;BME280;41911;52.362;4.978;2022-12-13T00:13:03;101302.84;;;-2.06;46.95
55687;BME280;41911;52.362;4.978;2022-12-13T00:13:34;101304.66;;;-2.42;46.97
55687;BME280;41911;52.362;4.978;2022-12-13T00:14:08;101303.86;;;-2.22;47.03
55687;BME280;41911;52.362;4.978;2022-12-13T00:14:39;101301.14;;;-2.51;46.98
55687;BME280;41911;52.362;4.978;2022-12-13T00:15:10;101299.89;;;-2.54;46.97
55687;BME280;41911;52.362;4.978;2022-12-13T00:15:41;101300.24;;;-1.89;47.06
55687;BME280;41911;52.362;4.978;2022-12-13T00:16:13;101298.47;;;-2.14;47.10
55687;BME280;41911;52.362;4.978;2022-12-13T00:16:46;101299.88;;;-2.20;47.19
55687;BME280;41911;52.362;4.978;2022-12-13T00:17:17;101298.59;;;-1.84;47.03
55687;BME280;41911;52.362;4.978;2022-12-13T00:17:48;101298.37;;;-1.85;47.03
55687;BME280;41911;52.362;4.978;2022-12-13T00:18:19;101296.53;;;-2.15;47.06
55687;BME280;41911;52.362;4.978;2022-12-13T00:18:52;101296.76;;;-2.44;47.02
55687;BME280;41911;52.362;4.978;2022-12-13T00:19:23;101295.34;;;-2.45;47.11
55687;BME280;41911;52.362;4.978;2022-12-13T00:19:54;101296.20;;;-1.89;47.08
55687;BME280;41911;52.362;4.978;2022-12-13T00:20:25;101296.23;;;-2.19;47.17
55687;BME280;41911;52.362;4.978;2022-12-13T00:20:56;101296.37;;;-2.23;47.26
55687;BME280;41911;52.362;4.978;2022-12-13T00:21:29;101296.45;;;-2.18;47.25
55687;BME280;41911;52.362;4.978;2022-12-13T00:22:00;101295.13;;;-2.56;47.34
55687;BME280;41911;52.362;4.978;2022-12-13T00:22:31;101291.14;;;-2.65;47.32
55687;BME280;41911;52.362;4.978;2022-12-13T00:23:02;101292.52;;;-2.18;47.26
55687;BME280;41911;52.362;4.978;2022-12-13T00:23:33;101293.72;;;-1.88;47.23
55687;BME280;41911;52.362;4.978;2022-12-13T00:24:06;101293.47;;;-1.87;47.20
55687;BME280;41911;52.362;4.978;2022-12-13T00:24:37;101294.00;;;-1.90;47.24
55687;BME280;41911;52.362;4.978;2022-12-13T00:25:08;101293.38;;;-2.24;47.39
55687;BME280;41911;52.362;4.978;2022-12-13T00:25:39;101294.53;;;-2.02;47.31
55687;BME280;41911;52.362;4.978;2022-12-13T00:26:12;101293.32;;;-1.89;47.33
55687;BME280;41911;52.362;4.978;2022-12-13T00:26:44;101293.68;;;-2.50;47.30
55687;BME280;41911;52.362;4.978;2022-12-13T00:27:15;101294.27;;;-2.22;47.19
55687;BME280;41911;52.362;4.978;2022-12-13T00:27:46;101291.83;;;-1.84;47.26
55687;BME280;41911;52.362;4.978;2022-12-13T00:28:17;101293.88;;;-1.83;47.22
55687;BME280;41911;52.362;4.978;2022-12-13T00:28:48;101292.90;;;-1.90;47.22
55687;BME280;41911;52.362;4.978;2022-12-13T00:29:20;101292.85;;;-2.55;47.15
55687;BME280;41911;52.362;4.978;2022-12-13T00:29:50;101291.46;;;-2.40;47.05
55687;BME280;41911;52.362;4.978;2022-12-13T00:30:21;101293.04;;;-2.09;47.00
55687;BME280;41911;52.362;4.978;2022-12-13T00:30:57;101294.54;;;-2.38;47.12
55687;BME280;41911;52.362;4.978;2022-12-13T00:31:28;101293.36;;;-2.21;47.07
55687;BME280;41911;52.362;4.978;2022-12-13T00:31:59;101294.07;;;-1.86;47.06
55687;BME280;41911;52.362;4.978;2022-12-13T00:32:30;101295.72;;;-1.84;46.99
55687;BME280;41911;52.362;4.978;2022-12-13T00:33:01;101296.08;;;-2.05;46.93
55687;BME280;41911;52.362;4.978;2022-12-13T00:33:32;101297.55;;;-2.44;46.98
55687;BME280;41911;52.362;4.978;2022-12-13T00:34:03;101294.36;;;-2.09;46.96
55687;BME280;41911;52.362;4.978;2022-12-13T00:34:34;101297.53;;;-2.10;46.98
55687;BME280;41911;52.362;4.978;2022-12-13T00:35:06;101296.50;;;-1.82;46.98
55687;BME280;41911;52.362;4.978;2022-12-13T00:35:39;101295.49;;;-2.10;46.99
55687;BME280;41911;52.362;4.978;2022-12-13T00:36:10;101295.38;;;-2.10;46.86
55687;BME280;41911;52.362;4.978;2022-12-13T00:36:43;101295.98;;;-2.25;46.91
55687;BME280;41911;52.362;4.978;2022-12-13T00:37:14;101295.94;;;-2.27;46.91
55687;BME280;41911;52.362;4.978;2022-12-13T00:37:46;101295.45;;;-1.98;46.93
55687;BME280;41911;52.362;4.978;2022-12-13T00:38:17;101290.75;;;-1.87;46.92
55687;BME280;41911;52.362;4.978;2022-12-13T00:38:48;101292.95;;;-2.12;46.62
55687;BME280;41911;52.362;4.978;2022-12-13T00:39:19;101292.04;;;-2.22;46.53
55687;BME280;41911;52.362;4.978;2022-12-13T00:39:51;101293.31;;;-2.26;46.66
55687;BME280;41911;52.362;4.978;2022-12-13T00:40:22;101295.58;;;-1.85;46.61
55687;BME280;41911;52.362;4.978;2022-12-13T00:40:53;101293.00;;;-2.45;46.28
55687;BME280;41911;52.362;4.978;2022-12-13T00:41:24;101292.92;;;-2.17;46.46
55687;BME280;41911;52.362;4.978;2022-12-13T00:41:55;101292.60;;;-1.98;46.52
55687;BME280;41911;52.362;4.978;2022-12-13T00:42:26;101291.71;;;-1.93;46.44
55687;BME280;41911;52.362;4.978;2022-12-13T00:42:57;101289.14;;;-2.16;46.62
55687;BME280;41911;52.362;4.978;2022-12-13T00:43:28;101289.13;;;-2.17;46.58
55687;BME280;41911;52.362;4.978;2022-12-13T00:44:00;101288.12;;;-1.89;46.46
55687;BME280;41911;52.362;4.978;2022-12-13T00:44:31;101285.81;;;-2.55;46.59
55687;BME280;41911;52.362;4.978;2022-12-13T00:45:03;101288.05;;;-1.91;46.52
55687;BME280;41911;52.362;4.978;2022-12-13T00:45:34;101288.13;;;-2.56;46.62
55687;BME280;41911;52.362;4.978;2022-12-13T00:46:06;101287.39;;;-1.93;46.64
55687;BME280;41911;52.362;4.978;2022-12-13T00:46:39;101283.73;;;-2.08;46.76
55687;BME280;41911;52.362;4.978;2022-12-13T00:47:10;101283.21;;;-2.23;46.78
55687;BME280;41911;52.362;4.978;2022-12-13T00:47:41;101281.41;;;-2.08;46.72
55687;BME280;41911;52.362;4.978;2022-12-13T00:48:12;101282.41;;;-2.30;46.67
55687;BME280;41911;52.362;4.978;2022-12-13T00:48:47;101281.41;;;-2.00;46.84
55687;BME280;41911;52.362;4.978;2022-12-13T00:49:20;101280.15;;;-2.09;46.72
55687;BME280;41911;52.362;4.978;2022-12-13T00:49:51;101279.02;;;-2.25;46.67
55687;BME280;41911;52.362;4.978;2022-12-13T00:50:22;101282.66;;;-2.33;46.78
55687;BME280;41911;52.362;4.978;2022-12-13T00:50:53;101281.84;;;-2.28;46.84
55687;BME280;41911;52.362;4.978;2022-12-13T00:51:25;101280.64;;;-2.00;46.55
55687;BME280;41911;52.362;4.978;2022-12-13T00:51:56;101281.39;;;-2.37;46.84
55687;BME280;41911;52.362;4.978;2022-12-13T00:52:27;101280.99;;;-2.10;46.72
55687;BME280;41911;52.362;4.978;2022-12-13T00:53:00;101280.87;;;-2.46;46.60
55687;BME280;41911;52.362;4.978;2022-12-13T00:53:31;101281.56;;;-2.39;46.79
55687;BME280;41911;52.362;4.978;2022-12-13T00:54:02;101282.08;;;-2.10;46.84
55687;BME280;41911;52.362;4.978;2022-12-13T00:54:33;101282.69;;;-2.18;46.79
55687;BME280;41911;52.362;4.978;2022-12-13T00:55:05;101282.08;;;-2.10;46.80
55687;BME280;41911;52.362;4.978;2022-12-13T00:55:39;101282.34;;;-2.31;46.81
55687;BME280;41911;52.362;4.978;2022-12-13T00:56:15;101283.13;;;-2.02;46.77
55687;BME280;41911;52.362;4.978;2022-12-13T00:56:48;101284.20;;;-2.32;46.54
55687;BME280;41911;52.362;4.978;2022-12-13T00:57:19;101283.23;;;-2.38;46.49
55687;BME280;41911;52.362;4.978;2022-12-13T00:57:50;101284.12;;;-2.09;46.51
55687;BME280;41911;52.362;4.978;2022-12-13T00:58:22;101282.65;;;-2.39;46.64
55687;BME280;41911;52.362;4.978;2022-12-13T00:58:54;101284.03;;;-2.01;46.46
55687;BME280;41911;52.362;4.978;2022-12-13T00:59:25;101283.61;;;-2.09;46.37
55687;BME280;41911;52.362;4.978;2022-12-13T00:59:56;101282.93;;;-2.60;46.53
55687;BME280;41911;52.362;4.978;2022-12-13T01:00:27;101280.49;;;-2.33;46.48
55687;BME280;41911;52.362;4.978;2022-12-13T01:01:02;101279.26;;;-2.35;46.45
55687;BME280;41911;52.362;4.978;2022-12-13T01:01:35;101280.07;;;-2.65;46.32
55687;BME280;41911;52.362;4.978;2022-12-13T01:02:06;101278.89;;;-2.58;46.43
55687;BME280;41911;52.362;4.978;2022-12-13T01:02:37;101279.86;;;-2.45;46.44
55687;BME280;41911;52.362;4.978;2022-12-13T01:03:08;101280.81;;;-2.10;46.28
55687;BME280;41911;52.362;4.978;2022-12-13T01:03:40;101278.98;;;-2.11;46.48
55687;BME280;41911;52.362;4.978;2022-12-13T01:04:11;101281.00;;;-2.41;46.59
55687;BME280;41911;52.362;4.978;2022-12-13T01:04:43;101279.63;;;-2.36;46.48
55687;BME280;41911;52.362;4.978;2022-12-13T01:05:14;101278.94;;;-2.51;46.40
55687;BME280;41911;52.362;4.978;2022-12-13T01:05:45;101279.94;;;-2.37;46.49
55687;BME280;41911;52.362;4.978;2022-12-13T01:06:20;101278.73;;;-2.16;46.50
55687;BME280;41911;52.362;4.978;2022-12-13T01:06:52;101277.60;;;-2.16;46.30
55687;BME280;41911;52.362;4.978;2022-12-13T01:07:23;101277.90;;;-2.23;46.49
55687;BME280;41911;52.362;4.978;2022-12-13T01:07:54;101275.09;;;-2.48;46.39
55687;BME280;41911;52.362;4.978;2022-12-13T01:08:26;101274.96;;;-2.41;46.56
55687;BME280;41911;52.362;4.978;2022-12-13T01:08:57;101273.27;;;-2.27;46.57
55687;BME280;41911;52.362;4.978;2022-12-13T01:09:28;101274.01;;;-2.22;46.64
55687;BME280;41911;52.362;4.978;2022-12-13T01:09:59;101273.55;;;-2.16;46.50
55687;BME280;41911;52.362;4.978;2022-12-13T01:10:30;101274.84;;;-2.24;46.56
55687;BME280;41911;52.362;4.978;2022-12-13T01:11:02;101276.55;;;-2.46;46.66
55687;BME280;41911;52.362;4.978;2022-12-13T01:11:33;101276.14;;;-2.47;46.62
55687;BME280;41911;52.362;4.978;2022-12-13T01:12:05;101277.35;;;-2.77;46.56
55687;BME280;41911;52.362;4.978;2022-12-13T01:12:36;101276.64;;;-2.20;46.61
55687;BME280;41911;52.362;4.978;2022-12-13T01:13:07;101277.30;;;-2.20;46.70
55687;BME280;41911;52.362;4.978;2022-12-13T01:13:39;101278.50;;;-2.21;46.35
55687;BME280;41911;52.362;4.978;2022-12-13T01:14:11;101276.90;;;-2.22;46.43
55687;BME280;41911;52.362;4.978;2022-12-13T01:14:42;101276.62;;;-2.52;46.66
55687;BME280;41911;52.362;4.978;2022-12-13T01:15:13;101277.53;;;-2.25;46.69
55687;BME280;41911;52.362;4.978;2022-12-13T01:15:45;101277.02;;;-2.26;46.69
55687;BME280;41911;52.362;4.978;2022-12-13T01:16:16;101275.80;;;-2.85;46.38
55687;BME280;41911;52.362;4.978;2022-12-13T01:16:47;101276.81;;;-2.27;46.55
55687;BME280;41911;52.362;4.978;2022-12-13T01:17:18;101275.08;;;-2.55;46.60
55687;BME280;41911;52.362;4.978;2022-12-13T01:17:49;101275.26;;;-2.35;46.54
55687;BME280;41911;52.362;4.978;2022-12-13T01:18:22;101274.21;;;-2.29;46.58
55687;BME280;41911;52.362;4.978;2022-12-13T01:18:53;101274.47;;;-2.87;46.44
55687;BME280;41911;52.362;4.978;2022-12-13T01:19:27;101275.45;;;-2.36;46.53
55687;BME280;41911;52.362;4.978;2022-12-13T01:19:58;101272.27;;;-2.30;46.49
55687;BME280;41911;52.362;4.978;2022-12-13T01:20:29;101273.96;;;-2.30;46.62
55687;BME280;41911;52.362;4.978;2022-12-13T01:21:03;101273.93;;;-2.31;46.61
55687;BME280;41911;52.362;4.978;2022-12-13T01:21:35;101274.87;;;-2.29;46.50
55687;BME280;41911;52.362;4.978;2022-12-13T01:22:07;101275.12;;;-2.57;46.61
55687;BME280;41911;52.362;4.978;2022-12-13T01:22:38;101275.37;;;-2.29;46.66
55687;BME280;41911;52.362;4.978;2022-12-13T01:23:09;101276.82;;;-2.36;46.62
55687;BME280;41911;52.362;4.978;2022-12-13T01:23:40;101274.99;;;-2.56;46.74
55687;BME280;41911;52.362;4.978;2022-12-13T01:24:12;101275.89;;;-2.65;46.75
55687;BME280;41911;52.362;4.978;2022-12-13T01:24:43;101275.59;;;-2.36;46.71
55687;BME280;41911;52.362;4.978;2022-12-13T01:25:14;101277.91;;;-2.30;46.67
55687;BME280;41911;52.362;4.978;2022-12-13T01:25:45;101274.92;;;-2.30;46.51
55687;BME280;41911;52.362;4.978;2022-12-13T01:26:19;101276.34;;;-2.59;46.67
55687;BME280;41911;52.362;4.978;2022-12-13T01:26:51;101276.96;;;-2.28;46.72
55687;BME280;41911;52.362;4.978;2022-12-13T01:27:22;101277.41;;;-2.29;46.69
55687;BME280;41911;52.362;4.978;2022-12-13T01:27:53;101278.37;;;-2.39;46.71
55687;BME280;41911;52.362;4.978;2022-12-13T01:28:24;101278.23;;;-2.31;46.79
55687;BME280;41911;52.362;4.978;2022-12-13T01:28:55;101277.87;;;-2.30;46.64
55687;BME280;41911;52.362;4.978;2022-12-13T01:29:27;101275.69;;;-2.59;46.69
55687;BME280;41911;52.362;4.978;2022-12-13T01:29:57;101276.73;;;-2.32;46.65
55687;BME280;41911;52.362;4.978;2022-12-13T01:30:28;101279.54;;;-2.61;46.51
55687;BME280;41911;52.362;4.978;2022-12-13T01:31:01;101275.13;;;-2.59;46.63
55687;BME280;41911;52.362;4.978;2022-12-13T01:31:33;101275.10;;;-2.32;46.66
55687;BME280;41911;52.362;4.978;2022-12-13T01:32:05;101272.56;;;-2.32;46.67
55687;BME280;41911;52.362;4.978;2022-12-13T01:32:37;101274.94;;;-2.40;46.62
55687;BME280;41911;52.362;4.978;2022-12-13T01:33:08;101272.56;;;-2.32;46.46
55687;BME280;41911;52.362;4.978;2022-12-13T01:33:39;101273.59;;;-2.32;46.55
55687;BME280;41911;52.362;4.978;2022-12-13T01:34:11;101273.61;;;-2.38;46.48
55687;BME280;41911;52.362;4.978;2022-12-13T01:34:43;101274.86;;;-2.31;46.56
55687;BME280;41911;52.362;4.978;2022-12-13T01:35:14;101274.97;;;-2.60;46.63
55687;BME280;41911;52.362;4.978;2022-12-13T01:35:45;101276.96;;;-2.40;46.71
55687;BME280;41911;52.362;4.978;2022-12-13T01:36:20;101277.47;;;-2.34;46.58
55687;BME280;41911;52.362;4.978;2022-12-13T01:36:52;101279.24;;;-2.26;46.63
55687;BME280;41911;52.362;4.978;2022-12-13T01:37:24;101277.47;;;-2.34;46.47
55687;BME280;41911;52.362;4.978;2022-12-13T01:37:55;101277.19;;;-2.33;46.49
55687;BME280;41911;52.362;4.978;2022-12-13T01:38:25;101277.89;;;-2.35;46.33
55687;BME280;41911;52.362;4.978;2022-12-13T01:38:56;101276.52;;;-2.36;46.41
55687;BME280;41911;52.362;4.978;2022-12-13T01:39:27;101279.59;;;-2.37;46.57
55687;BME280;41911;52.362;4.978;2022-12-13T01:39:58;101276.99;;;-2.46;46.63
55687;BME280;41911;52.362;4.978;2022-12-13T01:40:29;101276.09;;;-2.40;46.59
55687;BME280;41911;52.362;4.978;2022-12-13T01:41:01;101278.69;;;-2.71;46.57
55687;BME280;41911;52.362;4.978;2022-12-13T01:41:32;101276.76;;;-2.28;46.58
55687;BME280;41911;52.362;4.978;2022-12-13T01:42:03;101278.89;;;-2.66;46.42
55687;BME280;41911;52.362;4.978;2022-12-13T01:42:36;101280.83;;;-2.31;46.47
55687;BME280;41911;52.362;4.978;2022-12-13T01:43:08;101278.03;;;-2.61;46.42
55687;BME280;41911;52.362;4.978;2022-12-13T01:43:51;101277.00;;;-2.35;46.39
55687;BME280;41911;52.362;4.978;2022-12-13T01:45:28;101277.91;;;-2.35;46.44
55687;BME280;41911;52.362;4.978;2022-12-13T01:45:59;101278.26;;;-2.47;46.42
55687;BME280;41911;52.362;4.978;2022-12-13T01:46:32;101276.81;;;-2.41;46.39
55687;BME280;41911;52.362;4.978;2022-12-13T01:47:03;101277.72;;;-2.43;46.54
55687;BME280;41911;52.362;4.978;2022-12-13T01:47:38;101277.46;;;-2.42;46.48
55687;BME280;41911;52.362;4.978;2022-12-13T01:48:13;101277.57;;;-2.50;46.33
55687;BME280;41911;52.362;4.978;2022-12-13T01:48:51;101276.20;;;-2.43;46.34
55687;BME280;41911;52.362;4.978;2022-12-13T01:49:23;101276.82;;;-2.51;46.49
55687;BME280;41911;52.362;4.978;2022-12-13T01:49:56;101278.13;;;-2.72;46.50
55687;BME280;41911;52.362;4.978;2022-12-13T01:50:31;101278.80;;;-2.45;46.48
55687;BME280;41911;52.362;4.978;2022-12-13T01:51:07;101274.71;;;-2.44;46.43
55687;BME280;41911;52.362;4.978;2022-12-13T01:51:45;101275.41;;;-2.51;46.49
55687;BME280;41911;52.362;4.978;2022-12-13T01:52:17;101274.43;;;-2.66;46.45
55687;BME280;41911;52.362;4.978;2022-12-13T01:52:48;101274.94;;;-2.33;46.49
55687;BME280;41911;52.362;4.978;2022-12-13T01:53:22;101278.09;;;-2.41;46.48
55687;BME280;41911;52.362;4.978;2022-12-13T01:53:56;101275.95;;;-2.44;46.55
55687;BME280;41911;52.362;4.978;2022-12-13T01:54:31;101281.66;;;-2.67;46.54
55687;BME280;41911;52.362;4.978;2022-12-13T01:55:07;101281.04;;;-2.46;46.38
55687;BME280;41911;52.362;4.978;2022-12-13T01:55:39;101280.08;;;-2.53;46.59
55687;BME280;41911;52.362;4.978;2022-12-13T01:56:16;101283.05;;;-2.40;46.70
55687;BME280;41911;52.362;4.978;2022-12-13T01:56:54;101282.61;;;-2.70;46.73
55687;BME280;41911;52.362;4.978;2022-12-13T01:57:26;101280.56;;;-2.43;46.76
55687;BME280;41911;52.362;4.978;2022-12-13T01:58:02;101280.94;;;-2.36;46.83
55687;BME280;41911;52.362;4.978;2022-12-13T01:58:35;101283.19;;;-2.46;46.73
55687;BME280;41911;52.362;4.978;2022-12-13T01:59:08;101281.90;;;-2.47;46.75
55687;BME280;41911;52.362;4.978;2022-12-13T01:59:40;101280.71;;;-2.48;46.72
55687;BME280;41911;52.362;4.978;2022-12-13T02:00:13;101281.34;;;-2.42;46.54
55687;BME280;41911;52.362;4.978;2022-12-13T02:00:45;101280.60;;;-2.49;46.69
55687;BME280;41911;52.362;4.978;2022-12-13T02:01:17;101282.24;;;-2.50;46.55
55687;BME280;41911;52.362;4.978;2022-12-13T02:01:49;101279.49;;;-2.49;46.67
55687;BME280;41911;52.362;4.978;2022-12-13T02:02:21;101283.51;;;-2.49;46.81
55687;BME280;41911;52.362;4.978;2022-12-13T02:02:53;101279.96;;;-2.52;46.61
55687;BME280;41911;52.362;4.978;2022-12-13T02:03:28;101279.32;;;-2.60;46.56
55687;BME280;41911;52.362;4.978;2022-12-13T02:03:59;101279.93;;;-2.60;46.64
55687;BME280;41911;52.362;4.978;2022-12-13T02:04:35;101277.64;;;-2.61;46.68
55687;BME280;41911;52.362;4.978;2022-12-13T02:05:11;101277.08;;;-2.56;46.59
55687;BME280;41911;52.362;4.978;2022-12-13T02:05:51;101275.27;;;-2.56;46.71
55687;BME280;41911;52.362;4.978;2022-12-13T02:06:27;101275.20;;;-2.52;46.73
55687;BME280;41911;52.362;4.978;2022-12-13T02:07:03;101276.05;;;-2.51;46.81
55687;BME280;41911;52.362;4.978;2022-12-13T02:07:36;101274.12;;;-2.52;46.86
55687;BME280;41911;52.362;4.978;2022-12-13T02:08:10;101275.81;;;-2.56;46.80
55687;BME280;41911;52.362;4.978;2022-12-13T02:08:44;101275.05;;;-2.49;46.77
55687;BME280;41911;52.362;4.978;2022-12-13T02:09:15;101274.94;;;-2.50;46.75
55687;BME280;41911;52.362;4.978;2022-12-13T02:09:47;101275.32;;;-2.52;46.79
55687;BME280;41911;52.362;4.978;2022-12-13T02:10:19;101275.89;;;-2.51;46.86
55687;BME280;41911;52.362;4.978;2022-12-13T02:10:50;101273.27;;;-2.50;46.89
55687;BME280;41911;52.362;4.978;2022-12-13T02:11:22;101273.40;;;-2.50;46.77
55687;BME280;41911;52.362;4.978;2022-12-13T02:11:53;101273.67;;;-2.51;46.75
55687;BME280;41911;52.362;4.978;2022-12-13T02:12:26;101272.05;;;-2.52;46.77
55687;BME280;41911;52.362;4.978;2022-12-13T02:12:57;101273.72;;;-2.22;46.82
55687;BME280;41911;52.362;4.978;2022-12-13T02:13:28;101270.79;;;-2.51;46.85
55687;BME280;41911;52.362;4.978;2022-12-13T02:13:59;101272.72;;;-2.51;46.82
55687;BME280;41911;52.362;4.978;2022-12-13T02:14:34;101271.54;;;-2.51;46.81
55687;BME280;41911;52.362;4.978;2022-12-13T02:15:09;101272.09;;;-2.47;46.72
55687;BME280;41911;52.362;4.978;2022-12-13T02:15:46;101271.95;;;-2.51;46.70
55687;BME280;41911;52.362;4.978;2022-12-13T02:16:37;101270.90;;;-2.93;46.65
55687;BME280;41911;52.362;4.978;2022-12-13T02:17:18;101269.66;;;-2.76;46.79
55687;BME280;41911;52.362;4.978;2022-12-13T02:18:08;101270.45;;;-2.45;46.75
55687;BME280;41911;52.362;4.978;2022-12-13T02:18:57;101269.54;;;-2.50;46.63
55687;BME280;41911;52.362;4.978;2022-12-13T02:19:58;101268.75;;;-2.53;46.59
55687;BME280;41911;52.362;4.978;2022-12-13T02:20:53;101268.80;;;-2.75;46.58
55687;BME280;41911;52.362;4.978;2022-12-13T02:21:31;101266.74;;;-2.76;46.51
55687;BME280;41911;52.362;4.978;2022-12-13T02:22:12;101267.67;;;-2.48;46.48
55687;BME280;41911;52.362;4.978;2022-12-13T02:23:08;101269.58;;;-2.78;46.44
55687;BME280;41911;52.362;4.978;2022-12-13T02:25:15;101268.62;;;-2.51;46.38
55687;BME280;41911;52.362;4.978;2022-12-13T02:26:16;101270.68;;;-2.53;46.25
55687;BME280;41911;52.362;4.978;2022-12-13T02:26:58;101273.25;;;-2.54;46.40
55687;BME280;41911;52.362;4.978;2022-12-13T02:27:50;101273.94;;;-2.79;46.31
55687;BME280;41911;52.362;4.978;2022-12-13T02:28:43;101275.00;;;-2.50;46.49
55687;BME280;41911;52.362;4.978;2022-12-13T02:30:31;101275.61;;;-2.30;46.38
55687;BME280;41911;52.362;4.978;2022-12-13T02:31:08;101279.97;;;-2.41;46.49
55687;BME280;41911;52.362;4.978;2022-12-13T02:31:48;101278.39;;;-2.74;46.33
55687;BME280;41911;52.362;4.978;2022-12-13T02:32:27;101277.07;;;-2.48;46.39
55687;BME280;41911;52.362;4.978;2022-12-13T02:33:10;101277.75;;;-2.51;46.40
55687;BME280;41911;52.362;4.978;2022-12-13T02:33:50;101276.92;;;-3.06;46.27
55687;BME280;41911;52.362;4.978;2022-12-13T02:34:26;101276.13;;;-2.51;46.29
55687;BME280;41911;52.362;4.978;2022-12-13T02:35:02;101275.05;;;-2.47;46.32
55687;BME280;41911;52.362;4.978;2022-12-13T02:35:41;101274.43;;;-2.48;46.30
55687;BME280;41911;52.362;4.978;2022-12-13T02:36:18;101273.96;;;-2.51;46.30
55687;BME280;41911;52.362;4.978;2022-12-13T02:36:58;101275.04;;;-2.55;46.30
55687;BME280;41911;52.362;4.978;2022-12-13T02:37:42;101275.62;;;-2.58;46.15
55687;BME280;41911;52.362;4.978;2022-12-13T02:38:25;101273.48;;;-2.58;46.37
55687;BME280;41911;52.362;4.978;2022-12-13T02:39:04;101272.18;;;-2.52;46.35
55687;BME280;41911;52.362;4.978;2022-12-13T02:39:42;101272.17;;;-2.68;46.36
55687;BME280;41911;52.362;4.978;2022-12-13T02:40:22;101271.50;;;-2.60;46.35
55687;BME280;41911;52.362;4.978;2022-12-13T02:41:05;101271.38;;;-2.57;46.33
55687;BME280;41911;52.362;4.978;2022-12-13T02:41:45;101273.38;;;-2.36;46.20
55687;BME280;41911;52.362;4.978;2022-12-13T02:42:23;101271.11;;;-2.61;46.27
55687;BME280;41911;52.362;4.978;2022-12-13T02:43:02;101271.98;;;-2.53;46.32
55687;BME280;41911;52.362;4.978;2022-12-13T02:43:41;101270.32;;;-2.64;46.27
55687;BME280;41911;52.362;4.978;2022-12-13T02:44:18;101269.09;;;-2.68;46.30
55687;BME280;41911;52.362;4.978;2022-12-13T02:44:56;101267.56;;;-2.69;46.31
55687;BME280;41911;52.362;4.978;2022-12-13T02:45:32;101265.20;;;-2.43;46.37
55687;BME280;41911;52.362;4.978;2022-12-13T02:46:07;101266.56;;;-3.00;46.40
55687;BME280;41911;52.362;4.978;2022-12-13T02:46:47;101265.35;;;-2.41;46.44
55687;BME280;41911;52.362;4.978;2022-12-13T02:47:24;101266.48;;;-2.68;46.47
55687;BME280;41911;52.362;4.978;2022-12-13T02:48:00;101266.15;;;-2.66;46.42
55687;BME280;41911;52.362;4.978;2022-12-13T02:48:36;101263.02;;;-2.66;46.41
55687;BME280;41911;52.362;4.978;2022-12-13T02:49:08;101264.51;;;-2.67;46.34
55687;BME280;41911;52.362;4.978;2022-12-13T02:49:41;101261.42;;;-2.69;46.30
55687;BME280;41911;52.362;4.978;2022-12-13T02:50:15;101262.82;;;-2.78;46.34
55687;BME280;41911;52.362;4.978;2022-12-13T02:50:49;101262.93;;;-2.66;46.30
55687;BME280;41911;52.362;4.978;2022-12-13T02:51:21;101263.14;;;-2.77;46.27
55687;BME280;41911;52.362;4.978;2022-12-13T02:51:53;101262.68;;;-2.80;46.19
55687;BME280;41911;52.362;4.978;2022-12-13T02:52:28;101261.79;;;-2.81;46.16
55687;BME280;41911;52.362;4.978;2022-12-13T02:53:04;101262.60;;;-2.54;46.18
55687;BME280;41911;52.362;4.978;2022-12-13T02:53:36;101262.17;;;-2.83;46.21
55687;BME280;41911;52.362;4.978;2022-12-13T02:54:09;101260.29;;;-2.82;46.21
55687;BME280;41911;52.362;4.978;2022-12-13T02:54:40;101260.78;;;-2.82;46.24
55687;BME280;41911;52.362;4.978;2022-12-13T02:55:13;101261.61;;;-2.83;46.14
55687;BME280;41911;52.362;4.978;2022-12-13T02:55:45;101261.28;;;-2.82;46.27
55687;BME280;41911;52.362;4.978;2022-12-13T02:56:16;101260.64;;;-2.82;46.21
55687;BME280;41911;52.362;4.978;2022-12-13T02:56:53;101260.10;;;-2.81;46.20
55687;BME280;41911;52.362;4.978;2022-12-13T02:57:29;101260.74;;;-2.81;46.18
55687;BME280;41911;52.362;4.978;2022-12-13T02:58:00;101261.49;;;-3.09;46.20
55687;BME280;41911;52.362;4.978;2022-12-13T02:58:33;101260.53;;;-2.81;46.21
55687;BME280;41911;52.362;4.978;2022-12-13T02:59:11;101260.22;;;-2.89;46.13
55687;BME280;41911;52.362;4.978;2022-12-13T02:59:44;101259.04;;;-2.82;46.23
55687;BME280;41911;52.362;4.978;2022-12-13T03:00:19;101259.38;;;-2.85;46.19